Time;durP1;ratioP1;P1;durP2;ratioP2;P2;SDS_P1;SDS_P2;PMS_P1;PMS_P2;Temp;Humidity;BMP_temperature;BMP_pressure;BME280_temperature;BME280_humidity;BME280_pressure;Samples;Min_cycle;Max_cycle;Signal;HPM_P1;HPM_P2
2021/06/15 00:00:18;;;;;;;6.43;3.90;;;;;;;22.22;64.76;100743.47;5049184;28;20441;-67
2021/06/15 00:02:46;;;;;;;9.65;4.18;;;;;;;22.18;65.23;100739.13;5048509;28;20045;-67
2021/06/15 00:05:15;;;;;;;9.02;3.65;;;;;;;22.15;64.88;100738.34;5049422;28;20047;-67
2021/06/15 00:07:42;;;;;;;5.80;3.45;;;;;;;22.11;65.39;100736.69;5049831;28;20123;-68
2021/06/15 00:10:13;;;;;;;9.48;4.03;;;;;;;22.08;65.44;100740.34;5028052;28;20120;-67
2021/06/15 00:12:43;;;;;;;6.18;3.80;;;;;;;22.08;65.47;100740.34;5028627;28;20439;-68
2021/06/15 00:15:12;;;;;;;8.63;4.00;;;;;;;22.05;65.40;100742.28;5029541;28;20114;-67
2021/06/15 00:17:39;;;;;;;7.93;3.80;;;;;;;22.02;65.62;100734.28;5019667;28;20076;-68
2021/06/15 00:20:08;;;;;;;9.27;4.25;;;;;;;22.00;65.42;100734.31;5029141;28;20454;-68
2021/06/15 00:22:36;;;;;;;9.18;3.85;;;;;;;21.95;65.30;100733.56;5029415;28;20048;-67
2021/06/15 00:25:05;;;;;;;7.82;3.72;;;;;;;21.96;65.33;100730.00;5028801;28;20037;-67
2021/06/15 00:27:33;;;;;;;8.07;3.65;;;;;;;21.95;65.08;100740.75;5029666;28;20045;-67
2021/06/15 00:30:02;;;;;;;6.25;3.40;;;;;;;21.90;65.73;100735.53;5029122;28;20033;-67
2021/06/15 00:32:29;;;;;;;5.72;3.67;;;;;;;21.82;65.85;100725.00;5028305;28;20413;-67
2021/06/15 00:34:56;;;;;;;12.65;4.43;;;;;;;21.87;65.43;100733.81;5029506;28;20121;-67
2021/06/15 00:37:24;;;;;;;6.82;3.80;;;;;;;21.99;65.44;100727.19;5029125;28;20083;-67
2021/06/15 00:39:52;;;;;;;7.30;4.00;;;;;;;22.06;65.16;100725.19;5026995;28;20064;-67
2021/06/15 00:42:20;;;;;;;7.53;3.83;;;;;;;22.42;64.18;100725.78;5029303;28;20555;-67
2021/06/15 00:44:47;;;;;;;7.53;4.13;;;;;;;22.39;63.68;100726.75;5029144;28;20047;-68
2021/06/15 00:47:17;;;;;;;10.57;4.43;;;;;;;22.41;64.62;100722.22;5029211;28;20432;-66
2021/06/15 00:49:45;;;;;;;7.65;3.90;;;;;;;22.38;65.56;100719.66;5028573;28;20041;-68
2021/06/15 00:52:12;;;;;;;7.38;4.30;;;;;;;22.34;65.87;100725.16;5029177;28;20405;-68
2021/06/15 00:54:39;;;;;;;13.73;5.20;;;;;;;22.25;66.04;100723.69;5028625;28;20488;-69
2021/06/15 00:57:07;;;;;;;9.52;5.07;;;;;;;22.31;66.66;100718.09;5028662;28;20509;-68
2021/06/15 00:59:35;;;;;;;11.13;5.38;;;;;;;22.25;67.01;100726.38;5028144;28;20056;-69
2021/06/15 01:02:03;;;;;;;11.57;4.90;;;;;;;22.15;67.69;100727.59;5024593;28;20037;-68
2021/06/15 01:04:35;;;;;;;12.85;5.35;;;;;;;22.16;67.30;100719.47;5027131;28;20112;-69
2021/06/15 01:07:10;;;;;;;13.50;5.80;;;;;;;21.71;69.04;100723.59;5026848;28;20374;-68
2021/06/15 01:09:42;;;;;;;14.32;6.20;;;;;;;21.65;69.56;100723.78;5028633;28;20039;-69
2021/06/15 01:12:19;;;;;;;16.80;6.03;;;;;;;21.66;69.44;100725.53;5027814;28;20130;-68
2021/06/15 01:15:01;;;;;;;16.27;6.00;;;;;;;21.65;70.08;100724.66;5049749;28;20052;-67
2021/06/15 01:17:33;;;;;;;15.48;6.07;;;;;;;21.66;70.26;100714.81;5052540;28;20068;-69
2021/06/15 01:20:13;;;;;;;9.38;5.20;;;;;;;21.65;70.35;100721.09;5051635;28;20032;-68
2021/06/15 01:22:55;;;;;;;13.40;5.65;;;;;;;21.65;71.10;100721.09;5052248;28;20048;-69
2021/06/15 01:25:28;;;;;;;14.77;6.03;;;;;;;21.63;71.27;100713.06;5052292;28;20075;-68
2021/06/15 01:28:01;;;;;;;12.18;5.30;;;;;;;21.62;71.49;100714.00;5051538;28;20445;-68
2021/06/15 01:30:36;;;;;;;12.18;6.10;;;;;;;21.57;71.82;100715.06;5051390;28;20135;-68
2021/06/15 01:33:07;;;;;;;16.90;6.40;;;;;;;21.59;71.78;100714.09;5052467;28;20037;-68
2021/06/15 01:35:36;;;;;;;12.65;5.97;;;;;;;21.59;72.40;100714.09;5051830;28;20071;-68
2021/06/15 01:38:08;;;;;;;13.07;6.70;;;;;;;21.63;72.17;100713.06;5051703;28;20041;-68
2021/06/15 01:40:43;;;;;;;14.15;6.10;;;;;;;21.64;72.49;100713.94;5050998;28;20053;-68
2021/06/15 01:43:14;;;;;;;;;;;;;;;21.57;72.42;100710.56;5049496;28;20493;-68
2021/06/15 01:45:48;;;;;;;13.50;6.15;;;;;;;21.55;72.68;100715.09;5049977;28;19924;-68
2021/06/15 01:48:21;;;;;;;14.13;6.97;;;;;;;21.50;72.80;100711.69;5050727;28;20760;-68
2021/06/15 01:50:49;;;;;;;8.88;5.93;;;;;;;21.44;73.38;100709.19;5046561;28;20397;-67
2021/06/15 01:53:20;;;;;;;10.70;6.65;;;;;;;21.44;73.62;100712.75;5051793;28;20381;-67
2021/06/15 01:55:52;;;;;;;15.75;6.63;;;;;;;21.41;73.91;100710.16;5051085;28;20037;-68
2021/06/15 01:58:24;;;;;;;12.43;5.93;;;;;;;21.50;73.99;100714.38;5051500;28;20611;-68
2021/06/15 02:00:53;;;;;;;10.95;6.18;;;;;;;21.47;74.16;100720.69;5051659;28;20128;-68
2021/06/15 02:03:21;;;;;;;16.23;6.30;;;;;;;21.53;74.38;100716.94;5050185;28;20037;-68
2021/06/15 02:05:51;;;;;;;11.48;5.53;;;;;;;21.57;74.28;100725.81;5051557;28;20116;-67
2021/06/15 02:08:23;;;;;;;11.50;6.22;;;;;;;21.59;74.30;100726.66;5051449;28;20041;-68
2021/06/15 02:10:52;;;;;;;13.30;6.40;;;;;;;21.59;74.31;100723.97;5050942;28;20072;-67
2021/06/15 02:13:22;;;;;;;10.95;6.40;;;;;;;21.65;74.01;100723.78;5051331;28;20037;-67
2021/06/15 02:15:51;;;;;;;12.02;6.90;;;;;;;21.68;74.19;100716.50;5050779;28;20123;-68
2021/06/15 02:18:21;;;;;;;16.48;6.57;;;;;;;21.71;73.69;100716.41;5048882;28;20041;-67
2021/06/15 02:20:51;;;;;;;10.25;5.72;;;;;;;21.72;73.92;100717.28;5049094;28;20059;-67
2021/06/15 02:23:21;;;;;;;11.45;6.50;;;;;;;21.78;73.96;100714.41;5049004;28;20128;-68
2021/06/15 02:25:53;;;;;;;11.68;6.10;;;;;;;21.79;73.81;100717.03;5049660;28;20045;-67
2021/06/15 02:28:23;;;;;;;12.15;6.28;;;;;;;21.79;73.77;100710.81;5050941;28;20064;-68
2021/06/15 02:30:51;;;;;;;14.20;7.00;;;;;;;21.79;73.74;100716.19;5051060;28;20041;-69
2021/06/15 02:33:23;;;;;;;17.00;7.20;;;;;;;21.80;73.99;100715.22;5050679;28;20124;-67
2021/06/15 02:35:53;;;;;;;15.45;7.15;;;;;;;21.79;74.49;100718.88;5050743;28;20457;-67
2021/06/15 02:38:29;;;;;;;12.23;6.18;;;;;;;21.80;74.33;100723.28;5050561;28;20131;-67
2021/06/15 02:41:02;;;;;;;11.93;6.57;;;;;;;21.79;74.65;100721.56;5050915;28;20048;-68
2021/06/15 02:43:33;;;;;;;10.07;6.05;;;;;;;21.79;74.70;100717.03;5050870;28;20049;-68
2021/06/15 02:46:01;;;;;;;9.23;5.68;;;;;;;21.76;74.70;100716.25;5050316;28;20124;-68
2021/06/15 02:48:34;;;;;;;11.25;6.30;;;;;;;21.76;75.16;100717.13;5050576;28;20041;-68
2021/06/15 02:51:03;;;;;;;10.57;5.70;;;;;;;21.76;75.09;100725.22;5033330;28;20636;-68
2021/06/15 02:53:37;;;;;;;9.88;5.50;;;;;;;21.72;75.20;100731.63;5050066;28;20051;-68
2021/06/15 02:56:10;;;;;;;10.48;6.38;;;;;;;21.68;75.41;100732.63;5050504;28;20040;-69
2021/06/15 02:58:40;;;;;;;7.80;5.43;;;;;;;21.71;75.60;100726.28;5051132;28;20037;-68
2021/06/15 03:01:07;;;;;;;11.13;5.88;;;;;;;21.71;75.18;100728.97;5049394;28;20045;-68
2021/06/15 03:03:36;;;;;;;13.80;6.57;;;;;;;21.76;75.12;100727.88;5050668;28;20037;-68
2021/06/15 03:06:04;;;;;;;8.98;5.05;;;;;;;21.79;74.86;100733.16;5049889;28;20428;-68
2021/06/15 03:08:32;;;;;;;11.25;6.45;;;;;;;21.82;75.14;100733.06;5050361;28;20041;-68
2021/06/15 03:10:59;;;;;;;10.13;6.40;;;;;;;21.81;74.66;100742.06;5049963;28;20455;-68
2021/06/15 03:13:34;;;;;;;9.82;6.78;;;;;;;21.76;75.46;100749.41;5049757;28;20462;-68
2021/06/15 03:16:04;;;;;;;;;;;;;;;21.73;75.17;100745.91;5050336;28;20063;-68
2021/06/15 03:18:36;;;;;;;9.90;5.93;;;;;;;21.76;75.15;100746.69;5050446;28;19921;-68
2021/06/15 03:21:07;;;;;;;13.25;6.00;;;;;;;21.83;75.48;100747.41;5049373;28;20057;-68
2021/06/15 03:23:47;;;;;;;8.75;5.10;;;;;;;21.88;74.78;100753.50;5050499;28;20137;-68
2021/06/15 03:26:19;;;;;;;8.68;4.97;;;;;;;21.87;75.09;100754.44;5049993;28;20087;-68
2021/06/15 03:28:53;;;;;;;9.73;5.53;;;;;;;21.91;74.84;100748.03;5029580;28;20527;-67
2021/06/15 03:31:24;;;;;;;8.15;5.30;;;;;;;21.98;74.86;100744.28;5030444;28;20037;-68
2021/06/15 03:33:53;;;;;;;9.38;5.50;;;;;;;21.97;74.50;100745.19;5030247;28;20033;-68
2021/06/15 03:36:23;;;;;;;12.05;5.03;;;;;;;22.05;75.09;100743.16;5029158;28;20128;-68
2021/06/15 03:38:52;;;;;;;8.90;4.65;;;;;;;21.99;75.19;100751.38;5029970;28;20054;-68
2021/06/15 03:41:20;;;;;;;9.65;4.57;;;;;;;22.02;75.02;100751.31;5030210;28;20116;-68
2021/06/15 03:43:50;;;;;;;9.35;4.65;;;;;;;22.02;74.57;100754.00;5030153;28;20065;-68
2021/06/15 03:46:23;;;;;;;7.22;5.15;;;;;;;21.95;74.33;100760.44;5029724;28;20160;-67
2021/06/15 03:48:53;;;;;;;9.23;5.30;;;;;;;21.93;74.72;100759.59;5029452;28;20505;-68
2021/06/15 03:51:25;;;;;;;9.95;5.45;;;;;;;22.05;74.26;100761.09;5029977;28;20501;-69
2021/06/15 03:54:05;;;;;;;8.27;4.70;;;;;;;22.15;74.32;100755.34;5030053;28;20033;-68
2021/06/15 03:56:35;;;;;;;9.65;5.28;;;;;;;22.37;74.30;100754.66;5029416;28;20037;-68
2021/06/15 03:59:04;;;;;;;7.72;4.65;;;;;;;22.55;74.11;100756.75;5029851;28;20089;-68
2021/06/15 04:01:35;;;;;;;7.80;3.25;;;;;;;22.74;73.46;100765.97;5028772;28;20505;-68
2021/06/15 04:04:05;;;;;;;7.40;3.83;;;;;;;22.82;72.38;100746.88;5029712;28;20494;-68
2021/06/15 04:06:35;;;;;;;6.95;3.50;;;;;;;22.74;72.39;100751.63;5028985;28;20535;-69
2021/06/15 04:09:05;;;;;;;8.32;3.05;;;;;;;22.62;71.96;100756.47;5029566;28;20502;-68
2021/06/15 04:11:38;;;;;;;4.40;2.25;;;;;;;22.37;72.16;100754.66;5029403;28;20033;-69
2021/06/15 04:14:07;;;;;;;5.18;2.20;;;;;;;21.84;73.99;100767.97;5029964;28;20113;-69
2021/06/15 04:16:36;;;;;;;8.45;2.30;;;;;;;21.40;75.28;100764.78;5028705;28;20156;-69
2021/06/15 04:19:08;;;;;;;5.60;2.45;;;;;;;21.36;75.42;100768.50;5029885;28;20113;-68
2021/06/15 04:21:40;;;;;;;6.32;2.47;;;;;;;21.28;75.63;100767.81;5028815;28;20049;-68
2021/06/15 04:24:13;;;;;;;8.73;2.60;;;;;;;21.30;75.30;100771.34;5029548;28;20116;-69
2021/06/15 04:26:40;;;;;;;10.45;2.60;;;;;;;21.20;75.47;100774.34;5029091;28;20061;-69
2021/06/15 04:29:10;;;;;;;4.95;2.40;;;;;;;21.12;76.38;100774.53;5028890;28;20052;-69
2021/06/15 04:31:41;;;;;;;6.30;2.47;;;;;;;21.06;76.37;100772.91;5029218;28;20054;-69
2021/06/15 04:34:12;;;;;;;7.43;2.75;;;;;;;21.14;75.97;100774.47;5029535;28;20056;-69
2021/06/15 04:36:42;;;;;;;6.07;2.40;;;;;;;21.20;75.31;100769.00;5029027;28;20188;-69
2021/06/15 04:39:15;;;;;;;5.63;3.13;;;;;;;21.30;74.62;100775.84;5029345;28;20045;-68
2021/06/15 04:41:49;;;;;;;5.53;1.98;;;;;;;21.45;74.40;100775.41;5032902;28;20065;-68
2021/06/15 04:44:22;;;;;;;7.40;2.40;;;;;;;21.52;73.55;100781.50;5030907;28;20045;-68
2021/06/15 04:46:55;;;;;;;8.50;2.70;;;;;;;21.56;73.30;100792.09;5048464;28;20079;-69
2021/06/15 04:49:31;;;;;;;9.30;3.10;;;;;;;21.59;73.03;100793.81;5048187;28;20041;-68
2021/06/15 04:52:01;;;;;;;7.13;2.17;;;;;;;21.60;72.63;100795.56;5045118;28;20604;-69
2021/06/15 04:54:34;;;;;;;5.25;2.40;;;;;;;21.66;72.10;100803.47;5019105;28;20123;-69
2021/06/15 04:57:05;;;;;;;6.30;2.38;;;;;;;21.65;71.94;100820.53;5023225;28;20045;-69
2021/06/15 04:59:36;;;;;;;7.32;2.53;;;;;;;21.73;72.01;100818.47;5026346;28;20037;-69
2021/06/15 05:02:07;;;;;;;7.65;2.17;;;;;;;21.84;71.44;100810.97;4998270;28;20088;-69
2021/06/15 05:04:37;;;;;;;5.38;2.00;;;;;;;21.86;71.24;100799.25;5027199;28;20046;-69
2021/06/15 05:07:05;;;;;;;3.35;1.77;;;;;;;21.88;71.19;100801.88;5027882;28;20476;-68
2021/06/15 05:09:35;;;;;;;5.68;1.90;;;;;;;21.95;71.46;100816.91;5018842;28;20042;-69
2021/06/15 05:12:03;;;;;;;4.40;2.03;;;;;;;22.02;71.36;100823.00;5026782;28;20044;-68
2021/06/15 05:14:35;;;;;;;5.45;2.03;;;;;;;22.13;71.14;100829.81;5027846;28;20056;-68
2021/06/15 05:17:04;;;;;;;4.88;1.90;;;;;;;22.15;70.45;100832.47;5028840;28;20041;-68
2021/06/15 05:19:33;;;;;;;4.63;1.98;;;;;;;21.88;71.16;100832.34;5027978;28;20038;-69
2021/06/15 05:22:05;;;;;;;5.40;1.52;;;;;;;21.67;72.09;100834.75;5028727;28;20045;-69
2021/06/15 05:24:50;;;;;;;5.03;2.20;;;;;;;21.34;73.55;100836.59;5028217;28;20435;-69
2021/06/15 05:27:19;;;;;;;4.93;2.22;;;;;;;21.02;74.71;100832.94;5047336;28;20044;-69
2021/06/15 05:29:46;;;;;;;6.63;2.55;;;;;;;21.00;74.85;100837.47;5048507;28;20047;-68
2021/06/15 05:32:14;;;;;;;6.38;2.28;;;;;;;21.10;74.26;100840.81;5028136;28;20045;-69
2021/06/15 05:34:43;;;;;;;3.78;1.90;;;;;;;21.28;74.23;100836.75;5031729;28;20040;-69
2021/06/15 05:37:11;;;;;;;9.30;2.35;;;;;;;21.35;73.66;100836.56;5028967;28;20064;-69
2021/06/15 05:39:40;;;;;;;5.55;2.20;;;;;;;21.47;72.96;100843.41;5027843;28;20047;-69
2021/06/15 05:42:11;;;;;;;6.30;2.28;;;;;;;21.67;72.27;100850.91;5027917;28;20045;-68
2021/06/15 05:44:40;;;;;;;2.00;1.50;;;;;;;21.71;72.42;100850.78;5027854;28;20615;-68
2021/06/15 05:47:08;;;;;;;8.35;2.28;;;;;;;21.77;72.48;100845.22;5028215;28;20986;-69
2021/06/15 05:49:35;;;;;;;4.50;1.98;;;;;;;21.84;72.27;100845.94;5028082;28;20057;-68
2021/06/15 05:52:07;;;;;;;3.88;2.05;;;;;;;21.91;72.00;100841.25;5027569;28;20124;-68
2021/06/15 05:54:36;;;;;;;4.05;1.90;;;;;;;21.91;71.88;100834.06;5028244;28;20045;-69
2021/06/15 05:57:04;;;;;;;5.43;2.38;;;;;;;21.98;71.22;100846.44;5027657;28;20099;-68
2021/06/15 05:59:31;;;;;;;4.90;2.00;;;;;;;22.04;71.24;100840.00;5028268;28;20511;-69
2021/06/15 06:01:59;;;;;;;3.10;2.00;;;;;;;22.05;70.80;100847.13;5030671;28;20034;-68
2021/06/15 06:04:31;;;;;;;3.97;2.00;;;;;;;22.14;70.74;100844.16;5031553;28;20047;-68
2021/06/15 06:09:53;;;;;;;5.03;2.10;;;;;;;22.18;70.45;100859.28;4986490;28;20543;-68
2021/06/15 06:12:21;;;;;;;9.55;2.67;;;;;;;21.83;70.79;100868.34;5031437;28;20125;-70
2021/06/15 06:14:48;;;;;;;5.80;2.60;;;;;;;21.33;72.25;100869.78;5032495;28;20076;-70
2021/06/15 06:17:15;;;;;;;8.25;3.13;;;;;;;21.09;73.60;100873.94;5031617;28;20498;-72
2021/06/15 06:19:44;;;;;;;9.23;2.78;;;;;;;20.88;74.42;100888.78;5031802;28;20050;-72
2021/06/15 06:22:11;;;;;;;8.48;3.58;;;;;;;20.86;74.50;100892.44;5031253;28;20103;-72
2021/06/15 06:24:39;;;;;;;11.77;3.53;;;;;;;20.77;75.14;100903.38;5031027;28;20120;-72
2021/06/15 06:27:08;;;;;;;12.32;4.93;;;;;;;20.73;75.50;100904.38;5031568;28;20042;-73
2021/06/15 06:29:36;;;;;;;12.18;3.88;;;;;;;20.76;75.38;100906.97;5030921;28;20405;-74
2021/06/15 06:32:04;;;;;;;8.35;3.40;;;;;;;20.73;75.67;100907.94;5030851;28;20396;-74
2021/06/15 06:34:31;;;;;;;11.70;3.38;;;;;;;20.56;76.11;100908.34;5030849;28;20128;-74
2021/06/15 06:37:00;;;;;;;12.70;3.60;;;;;;;20.54;76.00;100909.31;5030852;28;20560;-75
2021/06/15 06:39:27;;;;;;;9.40;3.90;;;;;;;20.44;76.02;100908.63;5030657;28;20048;-75
2021/06/15 06:41:54;;;;;;;8.70;3.78;;;;;;;20.46;75.78;100905.91;5017687;28;20125;-74
2021/06/15 06:44:23;;;;;;;12.90;4.05;;;;;;;20.32;75.73;100906.19;5030489;28;20449;-72
2021/06/15 06:46:51;;;;;;;10.30;4.45;;;;;;;20.34;75.28;100903.50;5030048;28;20112;-73
2021/06/15 06:49:18;;;;;;;7.70;3.70;;;;;;;20.07;76.20;100903.16;5030952;28;20409;-73
2021/06/15 06:51:46;;;;;;;7.97;3.47;;;;;;;20.21;76.21;100905.53;5031134;28;20576;-73
2021/06/15 06:54:13;;;;;;;8.45;3.17;;;;;;;20.49;76.09;100903.13;5031067;28;20132;-73
2021/06/15 06:56:41;;;;;;;8.45;3.50;;;;;;;20.58;75.94;100905.63;5031008;28;20117;-73
2021/06/15 06:59:09;;;;;;;8.77;3.90;;;;;;;20.69;75.66;100903.56;5030586;28;22303;-73
2021/06/15 07:01:38;;;;;;;9.60;5.50;;;;;;;20.82;75.71;100896.09;5023599;28;20489;-73
2021/06/15 07:04:06;;;;;;;9.38;3.63;;;;;;;20.84;76.17;100894.25;5028820;28;20451;-73
2021/06/15 07:06:33;;;;;;;10.23;4.82;;;;;;;20.91;76.10;100896.75;5030892;28;20038;-72
2021/06/15 07:09:01;;;;;;;8.02;3.90;;;;;;;21.15;76.00;100900.63;5030550;28;20128;-72
2021/06/15 07:11:29;;;;;;;8.77;4.82;;;;;;;21.34;75.42;100901.06;5031114;28;20499;-73
2021/06/15 07:13:56;;;;;;;12.25;5.72;;;;;;;21.62;75.53;100902.09;5030236;28;20038;-73
2021/06/15 07:16:24;;;;;;;8.75;3.70;;;;;;;21.94;75.81;100894.91;5030615;28;20386;-72
2021/06/15 07:18:53;;;;;;;15.38;6.68;;;;;;;22.13;75.74;100906.94;5030478;28;20034;-72
2021/06/15 07:21:21;;;;;;;19.95;9.65;;;;;;;22.23;75.43;100903.06;5030458;28;20117;-71
2021/06/15 07:23:49;;;;;;;14.82;7.45;;;;;;;22.46;75.83;100905.03;5031015;28;20152;-72
2021/06/15 07:26:16;;;;;;;12.07;4.80;;;;;;;22.66;75.45;100900.78;5033318;28;20179;-72
2021/06/15 07:28:44;;;;;;;7.47;3.38;;;;;;;22.82;75.37;100905.72;5030202;28;20112;-71
2021/06/15 07:31:11;;;;;;;6.47;2.45;;;;;;;22.95;75.45;100907.97;5028031;28;20055;-71
2021/06/15 07:33:39;;;;;;;5.68;1.65;;;;;;;23.58;75.29;100909.41;5030522;28;20148;-71
2021/06/15 07:36:08;;;;;;;5.18;1.83;;;;;;;23.81;73.95;100903.19;5030553;28;20029;-72
2021/06/15 07:38:36;;;;;;;3.53;2.03;;;;;;;23.79;73.00;100907.75;5030147;28;20133;-71
2021/06/15 07:41:04;;;;;;;6.63;2.08;;;;;;;23.79;72.10;100907.75;5029873;28;20037;-72
2021/06/15 07:43:32;;;;;;;3.92;1.77;;;;;;;23.84;72.16;100914.72;5030373;28;20057;-72
2021/06/15 07:46:00;;;;;;;5.93;1.85;;;;;;;23.86;72.41;100913.78;5030314;28;20574;-71
2021/06/15 07:48:27;;;;;;;3.80;1.90;;;;;;;23.85;72.00;100918.31;5029921;28;20121;-71
2021/06/15 07:50:55;;;;;;;10.10;2.03;;;;;;;23.89;71.99;100916.41;5029924;28;20065;-71
2021/06/15 07:53:24;;;;;;;3.67;1.90;;;;;;;23.74;72.24;100915.13;5029390;28;20137;-71
2021/06/15 07:55:52;;;;;;;5.97;2.30;;;;;;;23.63;72.97;100915.50;5029587;28;20125;-70
2021/06/15 07:58:19;;;;;;;4.50;2.15;;;;;;;23.63;73.44;100920.88;5014887;28;20042;-71
2021/06/15 08:00:47;;;;;;;7.03;2.15;;;;;;;23.72;73.37;100915.19;5048453;28;20041;-71
2021/06/15 08:03:14;;;;;;;5.57;2.00;;;;;;;24.15;72.58;100914.47;5048206;28;20119;-72
2021/06/15 08:05:42;;;;;;;5.63;2.13;;;;;;;24.66;71.94;100915.22;5047906;28;20190;-72
2021/06/15 08:08:10;;;;;;;5.43;1.70;;;;;;;24.81;71.40;100920.88;5048019;28;20041;-72
2021/06/15 08:10:39;;;;;;;6.82;1.73;;;;;;;24.91;70.44;100921.44;5048532;28;20196;-71
2021/06/15 08:13:06;;;;;;;4.38;1.45;;;;;;;24.63;68.95;100913.53;5048638;28;20616;-71
2021/06/15 08:15:33;;;;;;;3.10;1.35;;;;;;;24.89;68.93;100916.09;5047983;28;20045;-71
2021/06/15 08:18:01;;;;;;;5.60;1.50;;;;;;;25.44;67.76;100912.88;5049048;28;20041;-71
2021/06/15 08:20:29;;;;;;;6.25;1.83;;;;;;;26.01;66.08;100913.00;5048439;28;20037;-71
2021/06/15 08:22:56;;;;;;;3.67;1.35;;;;;;;26.29;64.36;100914.47;5048163;28;20411;-72
2021/06/15 08:25:23;;;;;;;3.75;1.23;;;;;;;27.07;62.15;100919.72;5049167;28;20116;-70
2021/06/15 08:27:52;;;;;;;1.63;1.00;;;;;;;27.48;60.22;100921.22;5049025;28;20037;-69
2021/06/15 08:30:21;;;;;;;3.58;1.15;;;;;;;27.84;58.07;100912.09;5048735;28;20116;-70
2021/06/15 08:32:48;;;;;;;2.58;1.25;;;;;;;27.91;57.24;100908.09;5015352;28;20046;-70
2021/06/15 08:35:16;;;;;;;3.67;1.20;;;;;;;27.51;57.23;100912.00;5049145;28;20043;-71
2021/06/15 08:37:43;;;;;;;3.85;1.15;;;;;;;27.34;56.54;100915.63;5048318;28;20043;-71
2021/06/15 08:40:12;;;;;;;3.80;1.30;;;;;;;27.05;56.52;100921.63;5049139;28;20045;-71
2021/06/15 08:42:41;;;;;;;3.83;1.45;;;;;;;26.68;55.97;100920.69;5031330;28;20091;-71
2021/06/15 08:45:13;;;;;;;2.40;1.40;;;;;;;27.04;55.48;100922.59;5047825;28;20128;-70
2021/06/15 08:47:41;;;;;;;5.55;1.50;;;;;;;27.23;55.64;100912.59;5048673;28;20041;-70
2021/06/15 08:50:13;;;;;;;4.68;1.30;;;;;;;27.21;54.36;100911.78;5048069;28;20045;-70
2021/06/15 08:52:42;;;;;;;5.43;1.35;;;;;;;27.33;54.55;100909.31;5048835;28;20083;-70
2021/06/15 08:55:10;;;;;;;3.00;1.10;;;;;;;27.14;52.61;100908.50;5047864;28;20131;-69
2021/06/15 08:57:39;;;;;;;5.07;1.48;;;;;;;27.06;52.62;100924.25;5047883;28;20037;-70
2021/06/15 09:00:11;;;;;;;1.67;0.88;;;;;;;27.52;51.46;100919.22;5048226;28;20040;-69
2021/06/15 09:02:43;;;;;;;3.58;1.23;;;;;;;27.88;50.33;100914.59;5048526;28;20037;-69
2021/06/15 09:05:14;;;;;;;3.72;1.05;;;;;;;27.51;49.41;100912.00;5047768;28;20448;-69
2021/06/15 09:08:04;;;;;;;1.95;1.00;;;;;;;27.43;49.07;100917.00;5048303;28;20453;-69
2021/06/15 09:10:34;;;;;;;3.35;1.30;;;;;;;27.30;49.56;100920.34;5048712;28;20116;-69
2021/06/15 09:13:02;;;;;;;3.80;1.45;;;;;;;28.09;48.34;100918.00;5047587;28;20061;-69
2021/06/15 09:15:32;;;;;;;5.93;1.58;;;;;;;27.36;48.54;100914.59;5048717;28;20124;-69
2021/06/15 09:17:59;;;;;;;4.50;1.45;;;;;;;27.03;50.00;100910.00;5048061;28;20376;-69
2021/06/15 09:20:30;;;;;;;4.20;1.20;;;;;;;27.11;49.61;100921.34;5047777;28;20037;-68
2021/06/15 09:23:06;;;;;;;3.38;1.23;;;;;;;27.59;49.50;100913.41;5047189;28;20049;-69
2021/06/15 09:25:34;;;;;;;5.80;1.15;;;;;;;28.14;47.73;100918.66;5047775;28;20072;-68
2021/06/15 09:28:17;;;;;;;2.90;1.13;;;;;;;28.54;45.80;100917.31;5048081;28;20396;-68
2021/06/15 09:30:57;;;;;;;1.67;0.77;;;;;;;28.65;45.97;100922.13;5048416;28;20129;-68
2021/06/15 09:33:41;;;;;;;2.72;0.98;;;;;;;28.61;44.65;100915.13;5048105;28;20324;-68
2021/06/15 09:36:27;;;;;;;6.78;1.58;;;;;;;28.23;44.34;100909.97;5031514;28;20393;-69
2021/06/15 09:38:55;;;;;;;3.30;1.27;;;;;;;27.74;45.90;100914.44;5026782;28;20045;-69
2021/06/15 09:41:38;;;;;;;3.22;1.20;;;;;;;27.72;44.67;100909.09;5032018;28;20045;-68
2021/06/15 09:44:20;;;;;;;4.03;1.20;;;;;;;27.89;45.45;100915.47;5031234;28;20044;-69
2021/06/15 09:46:50;;;;;;;5.38;1.17;;;;;;;27.92;44.26;100918.88;5033658;28;20044;-68
2021/06/15 09:49:29;;;;;;;3.03;1.10;;;;;;;27.86;43.85;100915.63;5045590;28;20046;-68
2021/06/15 09:52:13;;;;;;;1.73;1.10;;;;;;;28.13;44.02;100922.28;5050736;28;20025;-68
2021/06/15 09:54:42;;;;;;;4.65;1.40;;;;;;;28.42;44.64;100916.13;5042276;28;20382;-68
2021/06/15 09:57:12;;;;;;;6.20;1.65;;;;;;;28.44;44.06;100916.94;5046486;28;20052;-68
2021/06/15 09:59:58;;;;;;;3.58;1.52;;;;;;;28.17;44.93;100918.47;5036573;28;20060;-67
2021/06/15 10:02:28;;;;;;;5.25;1.30;;;;;;;27.75;45.66;100918.91;5031483;28;20048;-68
2021/06/15 10:04:55;;;;;;;3.85;1.50;;;;;;;27.59;45.22;100913.41;5030094;28;20137;-68
2021/06/15 10:07:27;;;;;;;5.18;1.55;;;;;;;27.37;45.90;100916.31;5030826;28;20057;-67
2021/06/15 10:09:56;;;;;;;4.50;1.70;;;;;;;27.11;45.54;100921.34;5030404;28;20044;-67
2021/06/15 10:12:24;;;;;;;5.85;1.70;;;;;;;27.20;46.17;100918.16;5033822;28;20045;-66
2021/06/15 10:14:53;;;;;;;3.65;1.65;;;;;;;27.33;45.87;100922.88;5037985;28;20099;-67
2021/06/15 10:17:21;;;;;;;4.82;1.80;;;;;;;27.46;44.95;100920.41;5030990;28;20037;-67
2021/06/15 10:19:50;;;;;;;5.85;1.70;;;;;;;27.52;45.05;100928.25;5033463;28;20041;-67
2021/06/15 10:22:18;;;;;;;4.88;1.73;;;;;;;27.46;44.97;100922.25;5028802;28;20304;-67
2021/06/15 10:24:48;;;;;;;4.43;1.58;;;;;;;27.42;45.24;100917.94;5028312;28;20613;-67
2021/06/15 10:27:17;;;;;;;8.48;1.88;;;;;;;27.35;45.73;100915.53;5030032;28;20061;-67
2021/06/15 10:29:51;;;;;;;5.55;2.00;;;;;;;27.26;45.76;100925.97;5030017;28;20057;-67
2021/06/15 10:32:22;;;;;;;5.53;1.90;;;;;;;27.24;46.08;100925.19;5038005;28;20462;-67
2021/06/15 10:34:57;;;;;;;6.50;2.05;;;;;;;27.07;46.94;100931.44;5029179;28;20375;-67
2021/06/15 10:37:47;;;;;;;6.88;1.85;;;;;;;27.14;46.38;100929.31;5033172;28;20057;-67
2021/06/15 10:40:36;;;;;;;5.93;2.03;;;;;;;27.16;45.76;100939.13;5030879;28;20382;-68
2021/06/15 10:43:15;;;;;;;6.32;1.90;;;;;;;27.12;45.98;100940.22;5031946;28;20044;-68
2021/06/15 10:45:43;;;;;;;6.30;1.77;;;;;;;27.16;45.90;100935.53;5030453;28;20100;-68
2021/06/15 10:48:40;;;;;;;7.25;2.10;;;;;;;27.01;46.27;100934.47;5030051;28;20452;-68
2021/06/15 10:51:21;;;;;;;5.80;1.90;;;;;;;26.76;47.42;100934.75;5043934;28;20063;-68
2021/06/15 10:53:49;;;;;;;7.38;1.95;;;;;;;26.88;47.13;100936.00;5031653;28;20385;-68
2021/06/15 10:56:19;;;;;;;4.70;1.77;;;;;;;26.98;46.36;100940.03;5028009;28;20046;-68
2021/06/15 10:59:12;;;;;;;9.77;1.63;;;;;;;27.01;46.39;100939.00;5024484;28;20037;-67
2021/06/15 11:01:42;;;;;;;5.45;2.63;;;;;;;26.97;46.32;100938.28;5031016;28;20045;-68
2021/06/15 11:04:11;;;;;;;6.63;2.28;;;;;;;26.92;46.90;100938.50;5024878;28;20045;-67
2021/06/15 11:06:52;;;;;;;5.10;2.30;;;;;;;26.93;47.14;100932.13;5028672;28;20041;-67
2021/06/15 11:09:25;;;;;;;5.97;2.00;;;;;;;27.05;47.15;100941.47;5044803;28;20512;-67
2021/06/15 11:12:22;;;;;;;4.63;1.80;;;;;;;27.16;46.04;100938.25;5047244;28;20060;-67
2021/06/15 11:15:20;;;;;;;5.38;2.15;;;;;;;27.29;45.72;100931.25;5049460;28;20102;-67
2021/06/15 11:17:51;;;;;;;4.50;1.73;;;;;;;27.31;45.87;100921.19;5033740;28;20044;-67
2021/06/15 11:20:39;;;;;;;7.32;1.85;;;;;;;27.73;44.86;100921.72;5028870;28;20616;-67
2021/06/15 11:23:30;;;;;;;4.15;1.85;;;;;;;28.48;44.56;100915.81;5028812;28;20392;-67
2021/06/15 11:26:05;;;;;;;3.80;1.50;;;;;;;28.79;43.65;100922.25;5049651;28;20045;-68
2021/06/15 11:28:56;;;;;;;3.17;1.40;;;;;;;28.71;43.56;100925.38;5049879;28;20060;-67
2021/06/15 11:31:31;;;;;;;4.35;1.77;;;;;;;28.75;43.33;100931.56;5026575;28;20041;-67
2021/06/15 11:34:26;;;;;;;6.60;1.67;;;;;;;28.69;43.51;100927.28;5024193;28;20069;-68
2021/06/15 11:36:56;;;;;;;5.10;1.85;;;;;;;28.63;43.32;100921.31;5024952;28;20139;-67
2021/06/15 11:39:39;;;;;;;4.93;1.80;;;;;;;28.65;43.03;100927.56;5029829;28;20489;-67
2021/06/15 11:42:20;;;;;;;3.40;1.33;;;;;;;28.68;42.75;100924.69;5028968;28;20076;-67
2021/06/15 11:44:59;;;;;;;4.90;1.58;;;;;;;28.65;43.13;100914.84;5019850;28;20121;-67